createdAt,value
2023-03-05T00:00:31.644Z,-1.9999999999999432
2023-03-05T00:01:31.630Z,-1.9999999999999432
2023-03-05T00:02:31.088Z,-1.9999999999999432
2023-03-05T00:03:31.702Z,-1.9999999999999432
2023-03-05T00:04:31.617Z,-1.9999999999999432
2023-03-05T00:05:31.601Z,-1.9999999999999432
2023-03-05T00:06:30.965Z,-1.9999999999999432
2023-03-05T00:07:31.590Z,-1.9999999999999432
2023-03-05T00:08:31.657Z,-1.9999999999999432
2023-03-05T00:09:31.591Z,-1.9999999999999432
2023-03-05T00:10:31.272Z,-1.9999999999999432
2023-03-05T00:11:31.775Z,-1.9999999999999432
2023-03-05T00:12:31.614Z,-1.9999999999999432
2023-03-05T00:13:31.616Z,-1.9999999999999432
2023-03-05T00:14:30.945Z,-1.9999999999999432
2023-03-05T00:15:31.602Z,-1.9999999999999432
2023-03-05T00:16:31.689Z,-1.9999999999999432
2023-03-05T00:17:31.597Z,-1.9999999999999432
2023-03-05T00:18:30.980Z,-1.9999999999999432
2023-03-05T00:19:31.602Z,-1.9999999999999432
2023-03-05T00:20:31.620Z,-1.9999999999999432
2023-03-05T00:21:31.625Z,-1.9999999999999432
2023-03-05T00:22:30.962Z,-2.111111111111086
2023-03-05T00:23:31.648Z,-2.111111111111086
2023-03-05T00:24:31.585Z,-2.111111111111086
2023-03-05T00:25:31.615Z,-2.111111111111086
2023-03-05T00:26:30.913Z,-2.111111111111086
2023-03-05T00:27:31.591Z,-2.111111111111086
2023-03-05T00:28:31.569Z,-2.111111111111086
2023-03-05T00:29:31.818Z,-2.111111111111086
2023-03-05T00:30:30.898Z,-2.2222222222221717
2023-03-05T00:31:31.820Z,-2.2222222222221717
2023-03-05T00:32:31.634Z,-2.2222222222221717
2023-03-05T00:33:31.619Z,-2.2222222222221717
2023-03-05T00:34:30.947Z,-2.2222222222221717
2023-03-05T00:35:31.599Z,-2.2222222222221717
2023-03-05T00:36:31.563Z,-2.2222222222221717
2023-03-05T00:37:31.625Z,-2.2222222222221717
2023-03-05T00:38:30.919Z,-2.2222222222221717
2023-03-05T00:39:31.591Z,-2.2222222222221717
2023-03-05T00:40:31.738Z,-2.2222222222221717
2023-03-05T00:41:31.610Z,-2.2222222222221717
2023-03-05T00:42:30.919Z,-2.2222222222221717
2023-03-05T00:43:31.586Z,-2.2222222222221717
2023-03-05T00:44:31.552Z,-2.2222222222221717
2023-03-05T00:45:31.687Z,-2.2222222222221717
2023-03-05T00:46:30.922Z,-2.2222222222221717
2023-03-05T00:47:31.590Z,-2.2222222222221717
2023-03-05T00:48:31.580Z,-2.2222222222221717
2023-03-05T00:49:31.610Z,-2.2222222222221717
2023-03-05T00:50:30.904Z,-2.2222222222221717
2023-03-05T00:51:31.625Z,-2.2222222222221717
2023-03-05T00:52:31.585Z,-2.2222222222221717
2023-03-05T00:53:31.606Z,-2.2777777777777715
2023-03-05T00:54:30.921Z,-2.2777777777777715
2023-03-05T00:55:31.601Z,-2.2777777777777715
2023-03-05T00:56:31.650Z,-2.2222222222221717
2023-03-05T00:57:31.677Z,-2.2222222222221717
2023-03-05T00:58:30.887Z,-2.2222222222221717
2023-03-05T00:59:31.595Z,-2.2222222222221717
2023-03-05T01:00:31.553Z,-2.2222222222221717
2023-03-05T01:01:31.702Z,-2.2222222222221717
2023-03-05T01:02:32.650Z,-2.2222222222221717
2023-03-05T01:03:31.578Z,-2.2222222222221717
2023-03-05T01:04:31.540Z,-2.2222222222221717
2023-03-05T01:05:31.642Z,-2.2222222222221717
2023-03-05T01:06:30.908Z,-2.2222222222221717
2023-03-05T01:07:31.602Z,-2.2222222222221717
2023-03-05T01:08:31.710Z,-2.2222222222221717
2023-03-05T01:09:31.596Z,-2.2222222222221717
2023-03-05T01:10:30.891Z,-2.2222222222221717
2023-03-05T01:11:31.576Z,-2.2222222222221717
2023-03-05T01:12:31.546Z,-2.2777777777777715
2023-03-05T01:13:31.584Z,-2.2777777777777715
2023-03-05T01:14:30.902Z,-2.2777777777777715
2023-03-05T01:15:31.730Z,-2.2777777777777715
2023-03-05T01:16:31.581Z,-2.2777777777777715
2023-03-05T01:17:31.587Z,-2.2777777777777715
2023-03-05T01:18:30.876Z,-2.2777777777777715
2023-03-05T01:19:31.685Z,-2.2777777777777715
2023-03-05T01:20:31.541Z,-2.3888888888888573
2023-03-05T01:21:31.585Z,-2.3888888888888573
2023-03-05T01:22:30.894Z,-2.3888888888888573
2023-03-05T01:23:31.545Z,-2.3888888888888573
2023-03-05T01:24:31.526Z,-2.3888888888888573
2023-03-05T01:25:31.612Z,-2.3888888888888573
2023-03-05T01:26:30.919Z,-2.3888888888888573
2023-03-05T01:27:31.584Z,-2.3888888888888573
2023-03-05T01:28:31.571Z,-2.3888888888888573
2023-03-05T01:29:31.720Z,-2.3888888888888573
2023-03-05T01:30:30.885Z,-2.3888888888888573
2023-03-05T01:31:31.741Z,-2.3888888888888573
2023-03-05T01:32:31.830Z,-2.3888888888888573
2023-03-05T01:33:31.630Z,-2.3888888888888573
2023-03-05T01:34:30.929Z,-2.3888888888888573
2023-03-05T01:35:31.595Z,-2.3888888888888573
2023-03-05T01:36:31.547Z,-2.499999999999943
2023-03-05T01:37:31.543Z,-2.499999999999943
2023-03-05T01:38:30.901Z,-2.499999999999943
2023-03-05T01:39:31.644Z,-2.499999999999943
2023-03-05T01:40:31.666Z,-2.499999999999943
2023-03-05T01:41:31.902Z,-2.499999999999943
2023-03-05T01:42:31.090Z,-2.499999999999943
2023-03-05T01:43:31.658Z,-2.499999999999943
2023-03-05T01:44:31.699Z,-2.499999999999943
2023-03-05T01:45:31.782Z,-2.499999999999943
2023-03-05T01:46:31.060Z,-2.611111111111086
2023-03-05T01:47:31.710Z,-2.611111111111086
2023-03-05T01:48:31.678Z,-2.611111111111086
2023-03-05T01:49:31.799Z,-2.611111111111086
2023-03-05T01:50:31.023Z,-2.611111111111086
2023-03-05T01:51:31.760Z,-2.611111111111086
2023-03-05T01:52:31.673Z,-2.611111111111086
2023-03-05T01:53:31.736Z,-2.611111111111086
2023-03-05T01:54:31.047Z,-2.611111111111086
2023-03-05T01:55:31.750Z,-2.611111111111086
2023-03-05T01:56:31.697Z,-2.611111111111086
2023-03-05T01:57:31.720Z,-2.611111111111086
2023-03-05T01:58:30.944Z,-2.611111111111086
2023-03-05T01:59:31.566Z,-2.611111111111086
2023-03-05T02:00:31.542Z,-2.611111111111086
2023-03-05T02:01:31.608Z,-2.611111111111086
2023-03-05T02:02:30.845Z,-2.611111111111086
2023-03-05T02:03:31.613Z,-2.611111111111086
2023-03-05T02:04:31.552Z,-2.611111111111086
2023-03-05T02:05:31.579Z,-2.611111111111086
2023-03-05T02:06:30.873Z,-2.611111111111086
2023-03-05T02:07:31.552Z,-2.611111111111086
2023-03-05T02:08:31.553Z,-2.611111111111086
2023-03-05T02:09:31.552Z,-2.611111111111086
2023-03-05T02:10:30.892Z,-2.7222222222221717
2023-03-05T02:11:31.575Z,-2.7222222222221717
2023-03-05T02:12:31.553Z,-2.7222222222221717
2023-03-05T02:13:31.576Z,-2.7222222222221717
2023-03-05T02:14:30.899Z,-2.7222222222221717
2023-03-05T02:15:31.579Z,-2.7222222222221717
2023-03-05T02:16:31.578Z,-2.7222222222221717
2023-03-05T02:17:31.556Z,-2.7222222222221717
2023-03-05T02:18:30.877Z,-2.7222222222221717
2023-03-05T02:19:31.554Z,-2.7222222222221717
2023-03-05T02:20:31.532Z,-2.7222222222221717
2023-03-05T02:21:31.554Z,-2.7222222222221717
2023-03-05T02:22:30.888Z,-2.7222222222221717
2023-03-05T02:23:31.527Z,-2.7222222222221717
2023-03-05T02:24:31.526Z,-2.7222222222221717
2023-03-05T02:25:31.579Z,-2.7222222222221717
2023-03-05T02:26:30.910Z,-2.7222222222221717
2023-03-05T02:27:31.572Z,-2.7222222222221717
2023-03-05T02:28:31.558Z,-2.7222222222221717
2023-03-05T02:29:31.562Z,-2.7222222222221717
2023-03-05T02:30:30.888Z,-2.7222222222221717
2023-03-05T02:31:31.568Z,-2.7222222222221717
2023-03-05T02:32:31.650Z,-2.7222222222221717
2023-03-05T02:33:31.578Z,-2.7222222222221717
2023-03-05T02:34:30.865Z,-2.7222222222221717
2023-03-05T02:35:31.581Z,-2.7222222222221717
2023-03-05T02:36:31.547Z,-2.7777777777777146
2023-03-05T02:37:31.592Z,-2.7777777777777146
2023-03-05T02:38:30.871Z,-2.7777777777777146
2023-03-05T02:39:31.546Z,-2.7777777777777146
2023-03-05T02:40:31.518Z,-2.7777777777777146
2023-03-05T02:41:31.559Z,-2.7777777777777146
2023-03-05T02:42:30.892Z,-2.7777777777777146
2023-03-05T02:43:31.547Z,-2.7777777777777146
2023-03-05T02:44:31.652Z,-2.7777777777777146
2023-03-05T02:45:31.614Z,-2.7777777777777146
2023-03-05T02:46:30.891Z,-2.7777777777777146
2023-03-05T02:47:31.558Z,-2.7777777777777146
2023-03-05T02:48:31.550Z,-2.7777777777777146
2023-03-05T02:49:31.568Z,-2.7777777777777146
2023-03-05T02:50:30.895Z,-2.7777777777777146
2023-03-05T02:51:31.563Z,-2.7777777777777146
2023-03-05T02:52:31.535Z,-2.7777777777777146
2023-03-05T02:53:31.561Z,-2.7777777777777146
2023-03-05T02:54:30.858Z,-2.7777777777777146
2023-03-05T02:55:31.524Z,-2.7777777777777146
2023-03-05T02:56:31.542Z,-2.8888888888888573
2023-03-05T02:57:31.553Z,-2.8888888888888573
2023-03-05T02:58:30.902Z,-2.8888888888888573
2023-03-05T02:59:31.707Z,-2.8888888888888573
2023-03-05T03:00:31.534Z,-2.8888888888888573
2023-03-05T03:01:31.655Z,-2.8888888888888573
2023-03-05T03:02:30.902Z,-2.8888888888888573
2023-03-05T03:03:31.691Z,-2.8888888888888573
2023-03-05T03:04:31.589Z,-2.8888888888888573
2023-03-05T03:05:31.590Z,-2.8888888888888573
2023-03-05T03:06:30.856Z,-2.8888888888888573
2023-03-05T03:07:31.540Z,-2.8888888888888573
2023-03-05T03:08:31.605Z,-2.8888888888888573
2023-03-05T03:09:31.563Z,-2.8888888888888573
2023-03-05T03:10:30.959Z,-2.8888888888888573
2023-03-05T03:11:31.720Z,-2.8888888888888573
2023-03-05T03:12:31.552Z,-2.8888888888888573
2023-03-05T03:13:31.678Z,-2.999999999999943
2023-03-05T03:14:31.050Z,-2.999999999999943
2023-03-05T03:15:31.560Z,-2.999999999999943
2023-03-05T03:16:31.726Z,-2.999999999999943
2023-03-05T03:17:31.556Z,-2.999999999999943
2023-03-05T03:18:31.015Z,-2.999999999999943
2023-03-05T03:19:31.672Z,-2.999999999999943
2023-03-05T03:20:31.622Z,-2.999999999999943
2023-03-05T03:21:31.553Z,-2.999999999999943
2023-03-05T03:22:30.946Z,-2.999999999999943
2023-03-05T03:23:31.637Z,-2.999999999999943
2023-03-05T03:24:31.562Z,-2.999999999999943
2023-03-05T03:25:31.550Z,-2.999999999999943
2023-03-05T03:26:31.005Z,-2.999999999999943
2023-03-05T03:27:31.579Z,-2.999999999999943
2023-03-05T03:28:31.556Z,-2.999999999999943
2023-03-05T03:29:31.577Z,-2.999999999999943
2023-03-05T03:30:31.031Z,-2.999999999999943
2023-03-05T03:31:31.596Z,-2.999999999999943
2023-03-05T03:32:31.594Z,-2.999999999999943
2023-03-05T03:33:31.607Z,-2.999999999999943
2023-03-05T03:34:31.084Z,-2.999999999999943
2023-03-05T03:35:31.571Z,-2.999999999999943
2023-03-05T03:36:31.649Z,-2.999999999999943
2023-03-05T03:37:31.665Z,-2.999999999999943
2023-03-05T03:38:30.863Z,-2.999999999999943
2023-03-05T03:39:31.669Z,-2.999999999999943
2023-03-05T03:40:31.629Z,-2.999999999999943
2023-03-05T03:41:31.600Z,-3.111111111111086
2023-03-05T03:42:30.948Z,-3.111111111111086
2023-03-05T03:43:31.600Z,-3.111111111111086
2023-03-05T03:44:31.630Z,-3.111111111111086
2023-03-05T03:45:31.649Z,-3.111111111111086
2023-03-05T03:46:31.070Z,-3.111111111111086
2023-03-05T03:47:31.597Z,-3.111111111111086
2023-03-05T03:48:31.617Z,-3.111111111111086
2023-03-05T03:49:31.564Z,-3.111111111111086
2023-03-05T03:50:30.910Z,-3.111111111111086
2023-03-05T03:51:31.538Z,-3.111111111111086
2023-03-05T03:52:31.533Z,-3.111111111111086
2023-03-05T03:53:31.558Z,-3.2222222222221717
2023-03-05T03:54:30.878Z,-3.2222222222221717
2023-03-05T03:55:31.602Z,-3.111111111111086
2023-03-05T03:56:31.525Z,-3.111111111111086
2023-03-05T03:57:31.595Z,-3.2222222222221717
2023-03-05T03:58:30.871Z,-3.2222222222221717
2023-03-05T03:59:31.549Z,-3.2222222222221717
2023-03-05T04:00:31.538Z,-3.2222222222221717
2023-03-05T04:01:31.588Z,-3.2222222222221717
2023-03-05T04:02:30.952Z,-3.2222222222221717
2023-03-05T04:03:31.552Z,-3.2222222222221717
2023-03-05T04:04:31.663Z,-3.2222222222221717
2023-03-05T04:05:31.558Z,-3.2222222222221717
2023-03-05T04:06:30.887Z,-3.2222222222221717
2023-03-05T04:07:31.566Z,-3.2222222222221717
2023-03-05T04:08:31.770Z,-3.2222222222221717
2023-03-05T04:09:31.552Z,-3.2222222222221717
2023-03-05T04:10:30.878Z,-3.2222222222221717
2023-03-05T04:11:31.560Z,-3.111111111111086
2023-03-05T04:12:31.543Z,-3.111111111111086
2023-03-05T04:13:31.548Z,-3.2222222222221717
2023-03-05T04:14:30.860Z,-3.2222222222221717
2023-03-05T04:15:31.711Z,-3.2222222222221717
2023-03-05T04:16:31.544Z,-3.2222222222221717
2023-03-05T04:17:31.579Z,-3.2222222222221717
2023-03-05T04:18:32.518Z,-3.111111111111086
2023-03-05T04:19:31.544Z,-3.111111111111086
2023-03-05T04:20:31.537Z,-3.111111111111086
2023-03-05T04:21:31.575Z,-3.2222222222221717
2023-03-05T04:22:30.929Z,-3.2222222222221717
2023-03-05T04:23:31.553Z,-3.2222222222221717
2023-03-05T04:24:31.533Z,-3.2222222222221717
2023-03-05T04:25:31.517Z,-3.2222222222221717
2023-03-05T04:26:30.934Z,-3.2222222222221717
2023-03-05T04:27:31.552Z,-3.2222222222221717
2023-03-05T04:28:31.595Z,-3.2222222222221717
2023-03-05T04:29:31.514Z,-3.2222222222221717
2023-03-05T04:30:30.863Z,-3.2222222222221717
2023-03-05T04:31:31.587Z,-3.2222222222221717
2023-03-05T04:32:31.610Z,-3.2222222222221717
2023-03-05T04:33:31.547Z,-3.2222222222221717
2023-03-05T04:34:30.918Z,-3.2222222222221717
2023-03-05T04:35:31.611Z,-3.2222222222221717
2023-03-05T04:36:31.536Z,-3.2222222222221717
2023-03-05T04:37:31.517Z,-3.2222222222221717
2023-03-05T04:38:30.908Z,-3.2222222222221717
2023-03-05T04:39:31.577Z,-3.2222222222221717
2023-03-05T04:40:31.545Z,-3.2222222222221717
2023-03-05T04:41:31.615Z,-3.2222222222221717
2023-03-05T04:42:30.884Z,-3.2222222222221717
2023-03-05T04:43:31.517Z,-3.2222222222221717
2023-03-05T04:44:31.575Z,-3.2222222222221717
2023-03-05T04:45:31.541Z,-3.2222222222221717
2023-03-05T04:46:30.950Z,-3.2222222222221717
2023-03-05T04:47:31.509Z,-3.2222222222221717
2023-03-05T04:48:31.556Z,-3.2222222222221717
2023-03-05T04:49:31.507Z,-3.2777777777777146
2023-03-05T04:50:31.146Z,-3.2777777777777146
2023-03-05T04:51:31.510Z,-3.2777777777777146
2023-03-05T04:52:31.527Z,-3.2777777777777146
2023-03-05T04:53:31.542Z,-3.2777777777777146
2023-03-05T04:54:30.919Z,-3.2222222222221717
2023-03-05T04:55:31.578Z,-3.2222222222221717
2023-03-05T04:56:31.534Z,-3.2222222222221717
2023-03-05T04:57:31.550Z,-3.2777777777777146
2023-03-05T04:58:30.912Z,-3.2777777777777146
2023-03-05T04:59:31.527Z,-3.2777777777777146
2023-03-05T05:00:31.549Z,-3.2222222222221717
2023-03-05T05:01:31.551Z,-3.2222222222221717
2023-03-05T05:02:30.984Z,-3.2222222222221717
2023-03-05T05:03:31.522Z,-3.2222222222221717
2023-03-05T05:04:31.534Z,-3.2222222222221717
2023-03-05T05:05:31.575Z,-3.2222222222221717
2023-03-05T05:06:31.052Z,-3.2222222222221717
2023-03-05T05:07:31.596Z,-3.2222222222221717
2023-03-05T05:08:31.577Z,-3.2222222222221717
2023-03-05T05:09:31.532Z,-3.2222222222221717
2023-03-05T05:10:30.926Z,-3.2222222222221717
2023-03-05T05:11:31.528Z,-3.2222222222221717
2023-03-05T05:12:31.550Z,-3.2222222222221717
2023-03-05T05:13:31.561Z,-3.2222222222221717
2023-03-05T05:14:30.879Z,-3.2222222222221717
2023-03-05T05:15:31.533Z,-3.2222222222221717
2023-03-05T05:16:31.602Z,-3.2222222222221717
2023-03-05T05:17:31.528Z,-3.2222222222221717
2023-03-05T05:18:30.905Z,-3.2222222222221717
2023-03-05T05:19:31.578Z,-3.2222222222221717
2023-03-05T05:20:31.629Z,-3.2222222222221717
2023-03-05T05:21:31.518Z,-3.2222222222221717
2023-03-05T05:22:30.905Z,-3.2222222222221717
2023-03-05T05:23:31.556Z,-3.2222222222221717
2023-03-05T05:24:31.524Z,-3.2222222222221717
2023-03-05T05:25:31.531Z,-3.2222222222221717
2023-03-05T05:26:30.920Z,-3.2222222222221717
2023-03-05T05:27:31.521Z,-3.2222222222221717
2023-03-05T05:28:31.526Z,-3.2222222222221717
2023-03-05T05:29:31.529Z,-3.2222222222221717
2023-03-05T05:30:30.898Z,-3.2222222222221717
2023-03-05T05:31:31.601Z,-3.2222222222221717
2023-03-05T05:32:31.621Z,-3.2222222222221717
2023-03-05T05:33:31.531Z,-3.2222222222221717
2023-03-05T05:34:30.859Z,-3.2222222222221717
2023-03-05T05:35:31.621Z,-3.2222222222221717
2023-03-05T05:36:31.509Z,-3.2222222222221717
2023-03-05T05:37:31.534Z,-3.2222222222221717
2023-03-05T05:38:30.914Z,-3.2222222222221717
2023-03-05T05:39:31.540Z,-3.2222222222221717
2023-03-05T05:40:31.522Z,-3.2222222222221717
2023-03-05T05:41:31.553Z,-3.2222222222221717
2023-03-05T05:42:30.968Z,-3.2222222222221717
2023-03-05T05:43:31.562Z,-3.2222222222221717
2023-03-05T05:44:31.524Z,-3.2222222222221717
2023-03-05T05:45:31.748Z,-3.2222222222221717
2023-03-05T05:46:30.938Z,-3.2222222222221717
2023-03-05T05:47:31.537Z,-3.2222222222221717
2023-03-05T05:48:31.509Z,-3.2222222222221717
2023-03-05T05:49:31.594Z,-3.2222222222221717
2023-03-05T05:50:30.884Z,-3.2222222222221717
2023-03-05T05:51:31.551Z,-3.2222222222221717
2023-03-05T05:52:31.524Z,-3.2222222222221717
2023-03-05T05:53:31.588Z,-3.111111111111086
2023-03-05T05:54:31.075Z,-3.111111111111086
2023-03-05T05:55:31.558Z,-3.111111111111086
2023-03-05T05:56:31.525Z,-3.111111111111086
2023-03-05T05:57:31.568Z,-3.111111111111086
2023-03-05T05:58:30.916Z,-3.111111111111086
2023-03-05T05:59:31.557Z,-3.111111111111086
2023-03-05T06:00:31.526Z,-3.111111111111086
2023-03-05T06:01:31.582Z,-3.111111111111086
2023-03-05T06:02:30.882Z,-3.111111111111086
2023-03-05T06:03:31.549Z,-3.111111111111086
2023-03-05T06:04:31.516Z,-3.111111111111086
2023-03-05T06:05:31.547Z,-3.111111111111086
2023-03-05T06:06:30.864Z,-3.111111111111086
2023-03-05T06:07:31.559Z,-3.111111111111086
2023-03-05T06:08:31.519Z,-3.111111111111086
2023-03-05T06:09:31.543Z,-3.111111111111086
2023-03-05T06:10:30.913Z,-3.111111111111086
2023-03-05T06:11:31.553Z,-2.999999999999943
2023-03-05T06:12:31.523Z,-2.999999999999943
2023-03-05T06:13:31.536Z,-2.999999999999943
2023-03-05T06:14:30.930Z,-2.999999999999943
2023-03-05T06:15:31.569Z,-2.999999999999943
2023-03-05T06:16:31.595Z,-2.999999999999943
2023-03-05T06:17:31.523Z,-2.999999999999943
2023-03-05T06:18:30.870Z,-2.999999999999943
2023-03-05T06:19:31.560Z,-2.999999999999943
2023-03-05T06:20:31.523Z,-2.999999999999943
2023-03-05T06:21:31.560Z,-2.999999999999943
2023-03-05T06:22:30.880Z,-2.999999999999943
2023-03-05T06:23:31.553Z,-2.999999999999943
2023-03-05T06:24:31.525Z,-2.999999999999943
2023-03-05T06:25:31.534Z,-2.999999999999943
2023-03-05T06:26:30.895Z,-2.999999999999943
2023-03-05T06:27:31.583Z,-2.999999999999943
2023-03-05T06:28:31.528Z,-2.999999999999943
2023-03-05T06:29:31.531Z,-2.999999999999943
2023-03-05T06:30:30.944Z,-2.999999999999943
2023-03-05T06:31:31.565Z,-2.8888888888888573
2023-03-05T06:32:31.575Z,-2.8888888888888573
2023-03-05T06:33:31.528Z,-2.8888888888888573
2023-03-05T06:34:30.928Z,-2.7777777777777146
2023-03-05T06:35:31.626Z,-2.7222222222221717
2023-03-05T06:36:31.558Z,-2.611111111111086
2023-03-05T06:37:31.536Z,-2.611111111111086
2023-03-05T06:38:30.896Z,-2.611111111111086
2023-03-05T06:39:31.715Z,-2.611111111111086
2023-03-05T06:40:31.525Z,-2.611111111111086
2023-03-05T06:41:31.582Z,-2.611111111111086
2023-03-05T06:42:30.887Z,-2.611111111111086
2023-03-05T06:43:31.551Z,-2.611111111111086
2023-03-05T06:44:31.507Z,-2.611111111111086
2023-03-05T06:45:31.539Z,-2.499999999999943
2023-03-05T06:46:30.913Z,-2.499999999999943
2023-03-05T06:47:31.530Z,-2.3888888888888573
2023-03-05T06:48:31.506Z,-2.2777777777777715
2023-03-05T06:49:31.525Z,-2.111111111111086
2023-03-05T06:50:30.856Z,-1.9999999999999432
2023-03-05T06:51:31.525Z,-1.7777777777777146
2023-03-05T06:52:31.537Z,-1.7222222222221717
2023-03-05T06:53:31.695Z,-1.7222222222221717
2023-03-05T06:54:30.947Z,-1.7222222222221717
2023-03-05T06:55:31.527Z,-1.7222222222221717
2023-03-05T06:56:31.572Z,-1.7222222222221717
2023-03-05T06:57:31.519Z,-1.611111111111029
2023-03-05T06:58:30.947Z,-1.611111111111029
2023-03-05T06:59:31.527Z,-1.611111111111029
2023-03-05T07:00:31.539Z,-1.7222222222221717
2023-03-05T07:01:31.536Z,-1.7777777777777146
2023-03-05T07:02:30.931Z,-1.9999999999999432
2023-03-05T07:03:31.517Z,-1.9999999999999432
2023-03-05T07:04:31.529Z,-1.9999999999999432
2023-03-05T07:05:33.326Z,-1.9999999999999432
2023-03-05T07:06:30.917Z,-1.8888888888888573
2023-03-05T07:07:31.512Z,-1.7777777777777146
2023-03-05T07:08:31.527Z,-1.7777777777777146
2023-03-05T07:09:31.548Z,-1.7222222222221717
2023-03-05T07:10:30.870Z,-1.4999999999999432
2023-03-05T07:11:31.514Z,-1.4999999999999432
2023-03-05T07:12:31.526Z,-1.611111111111029
2023-03-05T07:13:31.549Z,-1.7222222222221717
2023-03-05T07:14:30.913Z,-1.7222222222221717
2023-03-05T07:15:31.560Z,-1.7222222222221717
2023-03-05T07:16:31.544Z,-1.611111111111029
2023-03-05T07:17:31.567Z,-1.611111111111029
2023-03-05T07:18:30.909Z,-1.4999999999999432
2023-03-05T07:19:31.508Z,-1.4999999999999432
2023-03-05T07:20:31.505Z,-1.4999999999999432
2023-03-05T07:21:31.539Z,-1.2777777777777146
2023-03-05T07:22:30.885Z,-1.2777777777777146
2023-03-05T07:23:31.494Z,-1.2222222222221717
2023-03-05T07:24:31.529Z,-1.1111111111110858
2023-03-05T07:25:31.531Z,-0.8888888888888573
2023-03-05T07:26:30.934Z,-0.8888888888888573
2023-03-05T07:27:31.513Z,-0.7777777777777146
2023-03-05T07:28:31.525Z,-0.8888888888888573
2023-03-05T07:29:31.539Z,-0.8888888888888573
2023-03-05T07:30:30.893Z,-0.8888888888888573
2023-03-05T07:31:31.543Z,-0.8888888888888573
2023-03-05T07:32:31.678Z,-0.7777777777777146
2023-03-05T07:33:31.585Z,-0.49999999999994316
2023-03-05T07:34:31.025Z,-0.3888888888888573
2023-03-05T07:35:31.549Z,-0.3888888888888573
2023-03-05T07:36:31.564Z,-0.7222222222221717
2023-03-05T07:37:31.539Z,-0.7222222222221717
2023-03-05T07:38:31.076Z,-0.6111111111110858
2023-03-05T07:39:31.490Z,-0.6111111111110858
2023-03-05T07:40:31.534Z,-0.49999999999994316
2023-03-05T07:41:31.524Z,-0.49999999999994316
2023-03-05T07:42:30.912Z,-0.3888888888888573
2023-03-05T07:43:31.500Z,-0.2222222222221717
2023-03-05T07:44:31.552Z,5.684341886080802e-14
2023-03-05T07:45:31.539Z,0.11111111111114269
2023-03-05T07:46:30.987Z,0.11111111111114269
2023-03-05T07:47:31.566Z,0.11111111111114269
2023-03-05T07:48:31.578Z,0.22222222222222854
2023-03-05T07:49:31.521Z,0.2777777777778283
2023-03-05T07:50:30.904Z,0.2777777777778283
2023-03-05T07:51:31.549Z,0.2777777777778283
2023-03-05T07:52:31.577Z,0.5000000000000568
2023-03-05T07:53:31.525Z,0.5000000000000568
2023-03-05T07:54:30.871Z,0.5000000000000568
2023-03-05T07:55:31.523Z,0.5000000000000568
2023-03-05T07:56:31.633Z,0.6111111111111427
2023-03-05T07:57:31.505Z,0.38888888888891415
2023-03-05T07:58:30.843Z,0.38888888888891415
2023-03-05T07:59:31.533Z,0.38888888888891415
2023-03-05T08:00:31.581Z,0.5000000000000568
2023-03-05T08:01:31.552Z,0.5000000000000568
2023-03-05T08:02:30.898Z,0.5000000000000568
2023-03-05T08:03:31.516Z,0.5000000000000568
2023-03-05T08:04:31.570Z,0.6111111111111427
2023-03-05T08:05:31.530Z,0.7222222222222854
2023-03-05T08:06:30.902Z,0.888888888888971
2023-03-05T08:07:31.512Z,0.888888888888971
2023-03-05T08:08:31.566Z,1.0000000000000568
2023-03-05T08:09:31.525Z,1.2777777777778283
2023-03-05T08:10:30.871Z,1.2777777777778283
2023-03-05T08:11:31.531Z,0.888888888888971
2023-03-05T08:12:31.541Z,0.888888888888971
2023-03-05T08:13:31.505Z,0.888888888888971
2023-03-05T08:14:30.845Z,0.888888888888971
2023-03-05T08:15:31.541Z,1.0000000000000568
2023-03-05T08:16:31.520Z,1.0000000000000568
2023-03-05T08:17:31.560Z,1.0000000000000568
2023-03-05T08:18:30.932Z,0.888888888888971
2023-03-05T08:19:31.506Z,0.7777777777778283
2023-03-05T08:20:31.571Z,0.6111111111111427
2023-03-05T08:21:31.498Z,0.5000000000000568
2023-03-05T08:22:30.861Z,0.5000000000000568
2023-03-05T08:23:31.562Z,0.5000000000000568
2023-03-05T08:24:31.570Z,0.6111111111111427
2023-03-05T08:25:31.635Z,0.7777777777778283
2023-03-05T08:26:30.838Z,1.1111111111111427
2023-03-05T08:27:31.556Z,1.2777777777778283
2023-03-05T08:28:33.311Z,1.3888888888889142
2023-03-05T08:29:31.512Z,1.3888888888889142
2023-03-05T08:30:30.871Z,1.6111111111111427
2023-03-05T08:31:31.561Z,1.6111111111111427
2023-03-05T08:32:31.614Z,1.6111111111111427
2023-03-05T08:33:32.554Z,1.3888888888889142
2023-03-05T08:34:30.866Z,1.2777777777778283
2023-03-05T08:35:31.558Z,1.2777777777778283
2023-03-05T08:36:31.491Z,1.2777777777778283
2023-03-05T08:37:31.528Z,1.1111111111111427
2023-03-05T08:38:30.840Z,0.888888888888971
2023-03-05T08:39:31.556Z,0.7777777777778283
2023-03-05T08:40:31.500Z,0.7222222222222854
2023-03-05T08:41:31.547Z,0.38888888888891415
2023-03-05T08:42:30.873Z,0.38888888888891415
2023-03-05T08:43:31.536Z,0.38888888888891415
2023-03-05T08:44:31.558Z,0.38888888888891415
2023-03-05T08:45:31.647Z,0.38888888888891415
2023-03-05T08:46:30.843Z,0.2777777777778283
2023-03-05T08:47:31.518Z,0.2777777777778283
2023-03-05T08:48:31.532Z,0.22222222222222854
2023-03-05T08:49:31.556Z,0.11111111111114269
2023-03-05T08:50:30.835Z,0.11111111111114269
2023-03-05T08:51:31.537Z,0.11111111111114269
2023-03-05T08:52:31.543Z,0.11111111111114269
2023-03-05T08:53:31.559Z,0.11111111111114269
2023-03-05T08:54:30.829Z,-0.11111111111108585
2023-03-05T08:55:31.548Z,-0.11111111111108585
2023-03-05T08:56:31.683Z,-0.11111111111108585